sensor_id;sensor_type;location;lat;lon;timestamp;P1;durP1;ratioP1;P2;durP2;ratioP2
23115;SDS011;11727;52.134;5.052;2023-06-22T00:00:54;4.88;;;3.00;;
23115;SDS011;11727;52.134;5.052;2023-06-22T00:03:20;5.15;;;2.78;;
23115;SDS011;11727;52.134;5.052;2023-06-22T00:05:47;6.20;;;2.80;;
23115;SDS011;11727;52.134;5.052;2023-06-22T00:08:14;3.83;;;2.30;;
23115;SDS011;11727;52.134;5.052;2023-06-22T00:10:40;5.78;;;2.80;;
23115;SDS011;11727;52.134;5.052;2023-06-22T00:13:06;6.03;;;3.20;;
23115;SDS011;11727;52.134;5.052;2023-06-22T00:15:33;4.65;;;3.05;;
23115;SDS011;11727;52.134;5.052;2023-06-22T00:17:59;6.97;;;3.03;;
23115;SDS011;11727;52.134;5.052;2023-06-22T00:20:25;5.50;;;3.55;;
23115;SDS011;11727;52.134;5.052;2023-06-22T00:22:54;9.75;;;3.95;;
23115;SDS011;11727;52.134;5.052;2023-06-22T00:25:21;4.53;;;3.00;;
23115;SDS011;11727;52.134;5.052;2023-06-22T00:27:46;5.63;;;2.97;;
23115;SDS011;11727;52.134;5.052;2023-06-22T00:30:12;8.52;;;3.00;;
23115;SDS011;11727;52.134;5.052;2023-06-22T00:32:38;6.82;;;3.30;;
23115;SDS011;11727;52.134;5.052;2023-06-22T00:35:04;9.68;;;3.92;;
23115;SDS011;11727;52.134;5.052;2023-06-22T00:37:30;4.88;;;2.72;;
23115;SDS011;11727;52.134;5.052;2023-06-22T00:39:56;4.95;;;2.95;;
23115;SDS011;11727;52.134;5.052;2023-06-22T00:42:22;6.63;;;2.55;;
23115;SDS011;11727;52.134;5.052;2023-06-22T00:44:47;7.15;;;3.30;;
23115;SDS011;11727;52.134;5.052;2023-06-22T00:47:13;4.47;;;2.97;;
23115;SDS011;11727;52.134;5.052;2023-06-22T00:49:42;8.73;;;2.80;;
23115;SDS011;11727;52.134;5.052;2023-06-22T00:52:08;5.68;;;3.50;;
23115;SDS011;11727;52.134;5.052;2023-06-22T00:54:38;7.50;;;3.80;;
23115;SDS011;11727;52.134;5.052;2023-06-22T00:57:10;6.35;;;3.42;;
23115;SDS011;11727;52.134;5.052;2023-06-22T00:59:37;7.30;;;3.30;;
23115;SDS011;11727;52.134;5.052;2023-06-22T01:02:04;5.85;;;3.20;;
23115;SDS011;11727;52.134;5.052;2023-06-22T01:04:37;8.40;;;4.32;;
23115;SDS011;11727;52.134;5.052;2023-06-22T01:09:57;5.72;;;2.95;;
23115;SDS011;11727;52.134;5.052;2023-06-22T01:12:40;7.68;;;3.35;;
23115;SDS011;11727;52.134;5.052;2023-06-22T01:17:44;7.78;;;3.88;;
23115;SDS011;11727;52.134;5.052;2023-06-22T01:20:10;7.85;;;3.58;;
23115;SDS011;11727;52.134;5.052;2023-06-22T01:22:59;8.45;;;3.88;;
23115;SDS011;11727;52.134;5.052;2023-06-22T01:25:48;6.50;;;3.70;;
23115;SDS011;11727;52.134;5.052;2023-06-22T01:31:22;11.93;;;3.95;;
23115;SDS011;11727;52.134;5.052;2023-06-22T01:33:50;6.68;;;4.10;;
23115;SDS011;11727;52.134;5.052;2023-06-22T01:36:18;7.10;;;3.70;;
23115;SDS011;11727;52.134;5.052;2023-06-22T01:38:46;8.45;;;4.53;;
23115;SDS011;11727;52.134;5.052;2023-06-22T01:41:12;6.20;;;4.32;;
23115;SDS011;11727;52.134;5.052;2023-06-22T01:43:39;9.20;;;4.60;;
23115;SDS011;11727;52.134;5.052;2023-06-22T01:46:05;9.60;;;4.20;;
23115;SDS011;11727;52.134;5.052;2023-06-22T01:48:31;7.85;;;4.40;;
23115;SDS011;11727;52.134;5.052;2023-06-22T01:50:57;7.47;;;4.93;;
23115;SDS011;11727;52.134;5.052;2023-06-22T01:53:24;9.73;;;5.20;;
23115;SDS011;11727;52.134;5.052;2023-06-22T01:55:49;8.18;;;4.55;;
23115;SDS011;11727;52.134;5.052;2023-06-22T01:58:15;8.65;;;4.60;;
23115;SDS011;11727;52.134;5.052;2023-06-22T02:00:44;9.82;;;4.95;;
23115;SDS011;11727;52.134;5.052;2023-06-22T02:03:19;7.10;;;4.68;;
23115;SDS011;11727;52.134;5.052;2023-06-22T02:06:10;13.85;;;5.85;;
23115;SDS011;11727;52.134;5.052;2023-06-22T02:08:41;8.73;;;5.50;;
23115;SDS011;11727;52.134;5.052;2023-06-22T02:11:16;7.55;;;4.82;;
23115;SDS011;11727;52.134;5.052;2023-06-22T02:13:45;8.35;;;5.15;;
23115;SDS011;11727;52.134;5.052;2023-06-22T02:16:11;10.00;;;5.25;;
23115;SDS011;11727;52.134;5.052;2023-06-22T02:18:38;11.48;;;5.40;;
23115;SDS011;11727;52.134;5.052;2023-06-22T02:21:05;13.20;;;5.97;;
23115;SDS011;11727;52.134;5.052;2023-06-22T02:23:31;9.15;;;5.65;;
23115;SDS011;11727;52.134;5.052;2023-06-22T02:26:00;9.40;;;5.65;;
23115;SDS011;11727;52.134;5.052;2023-06-22T02:28:27;10.30;;;6.10;;
23115;SDS011;11727;52.134;5.052;2023-06-22T02:30:52;10.23;;;5.68;;
23115;SDS011;11727;52.134;5.052;2023-06-22T02:33:18;11.23;;;5.95;;
23115;SDS011;11727;52.134;5.052;2023-06-22T02:35:44;11.18;;;6.00;;
23115;SDS011;11727;52.134;5.052;2023-06-22T02:38:12;10.80;;;6.18;;
23115;SDS011;11727;52.134;5.052;2023-06-22T02:40:38;9.88;;;6.05;;
23115;SDS011;11727;52.134;5.052;2023-06-22T02:43:04;9.02;;;6.38;;
23115;SDS011;11727;52.134;5.052;2023-06-22T02:45:29;11.98;;;6.05;;
23115;SDS011;11727;52.134;5.052;2023-06-22T02:47:55;12.27;;;6.70;;
23115;SDS011;11727;52.134;5.052;2023-06-22T02:50:21;10.15;;;6.22;;
23115;SDS011;11727;52.134;5.052;2023-06-22T02:52:47;9.73;;;6.43;;
23115;SDS011;11727;52.134;5.052;2023-06-22T02:55:12;9.35;;;5.30;;
23115;SDS011;11727;52.134;5.052;2023-06-22T02:57:38;12.07;;;5.88;;
23115;SDS011;11727;52.134;5.052;2023-06-22T03:00:08;13.05;;;7.28;;
23115;SDS011;11727;52.134;5.052;2023-06-22T03:02:42;11.43;;;6.13;;
23115;SDS011;11727;52.134;5.052;2023-06-22T03:05:11;13.13;;;6.55;;
23115;SDS011;11727;52.134;5.052;2023-06-22T03:07:38;9.45;;;5.97;;
23115;SDS011;11727;52.134;5.052;2023-06-22T03:10:05;11.63;;;6.85;;
23115;SDS011;11727;52.134;5.052;2023-06-22T03:12:32;11.25;;;5.82;;
23115;SDS011;11727;52.134;5.052;2023-06-22T03:14:57;14.27;;;7.00;;
23115;SDS011;11727;52.134;5.052;2023-06-22T03:17:23;11.80;;;6.43;;
23115;SDS011;11727;52.134;5.052;2023-06-22T03:19:48;9.43;;;5.80;;
23115;SDS011;11727;52.134;5.052;2023-06-22T03:22:14;13.35;;;6.15;;
23115;SDS011;11727;52.134;5.052;2023-06-22T03:24:40;10.63;;;6.03;;
23115;SDS011;11727;52.134;5.052;2023-06-22T03:27:05;11.23;;;6.13;;
23115;SDS011;11727;52.134;5.052;2023-06-22T03:29:31;12.68;;;7.07;;
23115;SDS011;11727;52.134;5.052;2023-06-22T03:31:57;12.45;;;6.38;;
23115;SDS011;11727;52.134;5.052;2023-06-22T03:34:23;10.52;;;6.05;;
23115;SDS011;11727;52.134;5.052;2023-06-22T03:36:48;13.60;;;7.25;;
23115;SDS011;11727;52.134;5.052;2023-06-22T03:39:14;14.75;;;6.55;;
23115;SDS011;11727;52.134;5.052;2023-06-22T03:41:39;10.63;;;5.47;;
23115;SDS011;11727;52.134;5.052;2023-06-22T03:44:05;12.73;;;6.93;;
23115;SDS011;11727;52.134;5.052;2023-06-22T03:46:31;10.73;;;6.20;;
23115;SDS011;11727;52.134;5.052;2023-06-22T03:48:56;12.60;;;6.50;;
23115;SDS011;11727;52.134;5.052;2023-06-22T03:51:22;12.48;;;7.30;;
23115;SDS011;11727;52.134;5.052;2023-06-22T03:53:48;14.02;;;6.82;;
23115;SDS011;11727;52.134;5.052;2023-06-22T03:56:13;12.85;;;7.07;;
23115;SDS011;11727;52.134;5.052;2023-06-22T03:58:45;12.93;;;7.03;;
23115;SDS011;11727;52.134;5.052;2023-06-22T04:01:10;14.40;;;6.90;;
23115;SDS011;11727;52.134;5.052;2023-06-22T04:03:36;12.70;;;7.55;;
23115;SDS011;11727;52.134;5.052;2023-06-22T04:06:03;10.60;;;6.35;;
23115;SDS011;11727;52.134;5.052;2023-06-22T04:08:29;13.77;;;6.25;;
23115;SDS011;11727;52.134;5.052;2023-06-22T04:10:55;14.57;;;7.65;;
23115;SDS011;11727;52.134;5.052;2023-06-22T04:13:20;12.10;;;7.35;;
23115;SDS011;11727;52.134;5.052;2023-06-22T04:15:46;16.30;;;8.40;;
23115;SDS011;11727;52.134;5.052;2023-06-22T04:18:12;16.02;;;8.50;;
23115;SDS011;11727;52.134;5.052;2023-06-22T04:20:38;13.50;;;8.40;;
23115;SDS011;11727;52.134;5.052;2023-06-22T04:23:04;17.38;;;8.57;;
23115;SDS011;11727;52.134;5.052;2023-06-22T04:25:29;13.55;;;7.82;;
23115;SDS011;11727;52.134;5.052;2023-06-22T04:27:55;15.93;;;8.00;;
23115;SDS011;11727;52.134;5.052;2023-06-22T04:30:20;15.07;;;7.88;;
23115;SDS011;11727;52.134;5.052;2023-06-22T04:32:47;14.93;;;8.40;;
23115;SDS011;11727;52.134;5.052;2023-06-22T04:35:21;15.85;;;8.07;;
23115;SDS011;11727;52.134;5.052;2023-06-22T04:37:50;17.80;;;7.72;;
23115;SDS011;11727;52.134;5.052;2023-06-22T04:40:19;16.63;;;9.05;;
23115;SDS011;11727;52.134;5.052;2023-06-22T04:42:48;12.70;;;7.55;;
23115;SDS011;11727;52.134;5.052;2023-06-22T04:45:20;17.27;;;8.23;;
23115;SDS011;11727;52.134;5.052;2023-06-22T04:47:46;12.95;;;7.50;;
23115;SDS011;11727;52.134;5.052;2023-06-22T04:50:12;17.45;;;9.13;;
23115;SDS011;11727;52.134;5.052;2023-06-22T04:52:38;19.27;;;9.55;;
23115;SDS011;11727;52.134;5.052;2023-06-22T04:55:03;13.30;;;8.13;;
23115;SDS011;11727;52.134;5.052;2023-06-22T04:57:29;16.80;;;9.18;;
23115;SDS011;11727;52.134;5.052;2023-06-22T04:59:59;15.05;;;9.13;;
23115;SDS011;11727;52.134;5.052;2023-06-22T05:02:37;16.25;;;9.07;;
23115;SDS011;11727;52.134;5.052;2023-06-22T05:05:04;15.05;;;8.20;;
23115;SDS011;11727;52.134;5.052;2023-06-22T05:07:32;19.95;;;10.77;;
23115;SDS011;11727;52.134;5.052;2023-06-22T05:09:58;18.17;;;10.37;;
23115;SDS011;11727;52.134;5.052;2023-06-22T05:12:25;18.52;;;9.98;;
23115;SDS011;11727;52.134;5.052;2023-06-22T05:14:50;18.77;;;11.57;;
23115;SDS011;11727;52.134;5.052;2023-06-22T05:17:16;22.30;;;10.80;;
23115;SDS011;11727;52.134;5.052;2023-06-22T05:19:44;18.75;;;10.75;;
23115;SDS011;11727;52.134;5.052;2023-06-22T05:22:14;17.73;;;10.10;;
23115;SDS011;11727;52.134;5.052;2023-06-22T05:24:40;17.38;;;10.05;;
23115;SDS011;11727;52.134;5.052;2023-06-22T05:27:06;24.33;;;11.75;;
23115;SDS011;11727;52.134;5.052;2023-06-22T05:29:32;27.75;;;12.15;;
23115;SDS011;11727;52.134;5.052;2023-06-22T05:31:57;22.60;;;11.80;;
23115;SDS011;11727;52.134;5.052;2023-06-22T05:34:23;24.17;;;12.93;;
23115;SDS011;11727;52.134;5.052;2023-06-22T05:36:48;21.88;;;11.80;;
23115;SDS011;11727;52.134;5.052;2023-06-22T05:39:14;24.25;;;12.85;;
23115;SDS011;11727;52.134;5.052;2023-06-22T05:41:40;24.15;;;12.18;;
23115;SDS011;11727;52.134;5.052;2023-06-22T05:44:08;19.77;;;11.77;;
23115;SDS011;11727;52.134;5.052;2023-06-22T05:46:33;22.45;;;12.88;;
23115;SDS011;11727;52.134;5.052;2023-06-22T05:48:59;23.45;;;11.43;;
23115;SDS011;11727;52.134;5.052;2023-06-22T05:51:25;21.42;;;11.43;;
23115;SDS011;11727;52.134;5.052;2023-06-22T05:53:50;16.58;;;10.43;;
23115;SDS011;11727;52.134;5.052;2023-06-22T05:56:16;18.58;;;11.68;;
23115;SDS011;11727;52.134;5.052;2023-06-22T05:58:42;20.75;;;11.63;;
23115;SDS011;11727;52.134;5.052;2023-06-22T06:01:07;31.65;;;14.10;;
23115;SDS011;11727;52.134;5.052;2023-06-22T06:03:33;26.50;;;13.57;;
23115;SDS011;11727;52.134;5.052;2023-06-22T06:05:59;24.83;;;13.45;;
23115;SDS011;11727;52.134;5.052;2023-06-22T06:08:27;25.58;;;14.15;;
23115;SDS011;11727;52.134;5.052;2023-06-22T06:10:53;22.63;;;13.48;;
23115;SDS011;11727;52.134;5.052;2023-06-22T06:13:20;25.73;;;13.70;;
23115;SDS011;11727;52.134;5.052;2023-06-22T06:15:45;21.20;;;12.05;;
23115;SDS011;11727;52.134;5.052;2023-06-22T06:18:11;26.92;;;15.50;;
23115;SDS011;11727;52.134;5.052;2023-06-22T06:20:37;28.90;;;14.85;;
23115;SDS011;11727;52.134;5.052;2023-06-22T06:23:02;28.50;;;14.45;;
23115;SDS011;11727;52.134;5.052;2023-06-22T06:25:28;36.30;;;15.68;;
23115;SDS011;11727;52.134;5.052;2023-06-22T06:27:53;30.67;;;15.68;;
23115;SDS011;11727;52.134;5.052;2023-06-22T06:30:19;26.48;;;14.18;;
23115;SDS011;11727;52.134;5.052;2023-06-22T06:32:45;28.77;;;15.23;;
23115;SDS011;11727;52.134;5.052;2023-06-22T06:35:12;28.73;;;15.37;;
23115;SDS011;11727;52.134;5.052;2023-06-22T06:37:40;25.90;;;15.32;;
23115;SDS011;11727;52.134;5.052;2023-06-22T06:40:09;24.27;;;13.43;;
23115;SDS011;11727;52.134;5.052;2023-06-22T06:42:45;27.55;;;13.63;;
23115;SDS011;11727;52.134;5.052;2023-06-22T06:45:12;31.37;;;16.10;;
23115;SDS011;11727;52.134;5.052;2023-06-22T06:47:48;25.70;;;14.68;;
23115;SDS011;11727;52.134;5.052;2023-06-22T06:50:14;25.50;;;14.02;;
23115;SDS011;11727;52.134;5.052;2023-06-22T06:52:41;28.23;;;15.63;;
23115;SDS011;11727;52.134;5.052;2023-06-22T06:55:07;27.20;;;14.82;;
23115;SDS011;11727;52.134;5.052;2023-06-22T06:57:37;26.15;;;14.68;;
23115;SDS011;11727;52.134;5.052;2023-06-22T07:00:03;26.05;;;14.05;;
23115;SDS011;11727;52.134;5.052;2023-06-22T07:02:34;26.58;;;15.07;;
23115;SDS011;11727;52.134;5.052;2023-06-22T07:05:00;31.92;;;15.57;;
23115;SDS011;11727;52.134;5.052;2023-06-22T07:07:28;21.55;;;13.05;;
23115;SDS011;11727;52.134;5.052;2023-06-22T07:09:54;28.50;;;15.43;;
23115;SDS011;11727;52.134;5.052;2023-06-22T07:12:19;29.30;;;14.05;;
23115;SDS011;11727;52.134;5.052;2023-06-22T07:14:46;27.88;;;14.00;;
23115;SDS011;11727;52.134;5.052;2023-06-22T07:17:11;25.65;;;12.65;;
23115;SDS011;11727;52.134;5.052;2023-06-22T07:19:37;27.23;;;13.07;;
23115;SDS011;11727;52.134;5.052;2023-06-22T07:22:03;22.13;;;12.70;;
23115;SDS011;11727;52.134;5.052;2023-06-22T07:24:29;18.90;;;11.35;;
23115;SDS011;11727;52.134;5.052;2023-06-22T07:26:55;24.80;;;12.85;;
23115;SDS011;11727;52.134;5.052;2023-06-22T07:29:22;23.55;;;12.38;;
23115;SDS011;11727;52.134;5.052;2023-06-22T07:31:48;20.98;;;12.07;;
23115;SDS011;11727;52.134;5.052;2023-06-22T07:34:16;21.45;;;12.82;;
23115;SDS011;11727;52.134;5.052;2023-06-22T07:36:42;20.65;;;12.02;;
23115;SDS011;11727;52.134;5.052;2023-06-22T07:39:08;26.88;;;12.45;;
23115;SDS011;11727;52.134;5.052;2023-06-22T07:41:34;19.27;;;11.82;;
23115;SDS011;11727;52.134;5.052;2023-06-22T07:43:59;19.02;;;11.82;;
23115;SDS011;11727;52.134;5.052;2023-06-22T07:46:25;21.65;;;12.25;;
23115;SDS011;11727;52.134;5.052;2023-06-22T07:48:51;21.52;;;11.68;;
23115;SDS011;11727;52.134;5.052;2023-06-22T07:51:16;21.50;;;12.65;;
23115;SDS011;11727;52.134;5.052;2023-06-22T07:53:42;18.83;;;10.02;;
23115;SDS011;11727;52.134;5.052;2023-06-22T07:56:11;20.52;;;11.32;;
23115;SDS011;11727;52.134;5.052;2023-06-22T07:58:37;20.75;;;11.60;;
23115;SDS011;11727;52.134;5.052;2023-06-22T08:01:03;19.63;;;11.02;;
23115;SDS011;11727;52.134;5.052;2023-06-22T08:03:29;20.13;;;10.55;;
23115;SDS011;11727;52.134;5.052;2023-06-22T08:05:54;16.15;;;10.43;;
23115;SDS011;11727;52.134;5.052;2023-06-22T08:08:20;18.17;;;9.25;;
23115;SDS011;11727;52.134;5.052;2023-06-22T08:10:46;14.48;;;8.20;;
23115;SDS011;11727;52.134;5.052;2023-06-22T08:13:11;21.65;;;9.02;;
23115;SDS011;11727;52.134;5.052;2023-06-22T08:15:37;13.27;;;8.88;;
23115;SDS011;11727;52.134;5.052;2023-06-22T08:18:03;16.98;;;9.23;;
23115;SDS011;11727;52.134;5.052;2023-06-22T08:20:28;12.80;;;8.27;;
23115;SDS011;11727;52.134;5.052;2023-06-22T08:22:55;13.82;;;8.40;;
23115;SDS011;11727;52.134;5.052;2023-06-22T08:25:22;19.00;;;9.88;;
23115;SDS011;11727;52.134;5.052;2023-06-22T08:27:47;16.60;;;9.82;;
23115;SDS011;11727;52.134;5.052;2023-06-22T08:30:13;14.25;;;9.05;;
23115;SDS011;11727;52.134;5.052;2023-06-22T08:32:39;15.82;;;8.77;;
23115;SDS011;11727;52.134;5.052;2023-06-22T08:35:05;15.65;;;7.68;;
23115;SDS011;11727;52.134;5.052;2023-06-22T08:37:33;16.60;;;10.18;;
23115;SDS011;11727;52.134;5.052;2023-06-22T08:40:00;15.45;;;8.90;;
23115;SDS011;11727;52.134;5.052;2023-06-22T08:42:29;15.13;;;8.70;;
23115;SDS011;11727;52.134;5.052;2023-06-22T08:44:55;18.20;;;9.38;;
23115;SDS011;11727;52.134;5.052;2023-06-22T08:47:21;16.10;;;8.65;;
23115;SDS011;11727;52.134;5.052;2023-06-22T08:49:48;13.20;;;7.40;;
23115;SDS011;11727;52.134;5.052;2023-06-22T08:52:14;12.43;;;8.00;;
23115;SDS011;11727;52.134;5.052;2023-06-22T08:54:39;14.63;;;9.77;;
23115;SDS011;11727;52.134;5.052;2023-06-22T08:57:05;17.63;;;9.07;;
23115;SDS011;11727;52.134;5.052;2023-06-22T08:59:31;11.77;;;7.32;;
23115;SDS011;11727;52.134;5.052;2023-06-22T09:01:56;12.13;;;7.53;;
23115;SDS011;11727;52.134;5.052;2023-06-22T09:04:22;12.23;;;6.85;;
23115;SDS011;11727;52.134;5.052;2023-06-22T09:06:48;9.75;;;5.70;;
23115;SDS011;11727;52.134;5.052;2023-06-22T09:09:15;11.23;;;7.05;;
23115;SDS011;11727;52.134;5.052;2023-06-22T09:11:41;14.77;;;9.27;;
23115;SDS011;11727;52.134;5.052;2023-06-22T09:14:07;18.45;;;9.50;;
23115;SDS011;11727;52.134;5.052;2023-06-22T09:16:33;12.40;;;8.30;;
23115;SDS011;11727;52.134;5.052;2023-06-22T09:18:59;19.92;;;8.07;;
23115;SDS011;11727;52.134;5.052;2023-06-22T09:21:25;15.43;;;6.70;;
23115;SDS011;11727;52.134;5.052;2023-06-22T09:23:51;14.00;;;8.93;;
23115;SDS011;11727;52.134;5.052;2023-06-22T09:26:17;13.07;;;7.72;;
23115;SDS011;11727;52.134;5.052;2023-06-22T09:28:43;11.50;;;7.50;;
23115;SDS011;11727;52.134;5.052;2023-06-22T09:31:09;12.50;;;8.10;;
23115;SDS011;11727;52.134;5.052;2023-06-22T09:33:35;16.02;;;7.60;;
23115;SDS011;11727;52.134;5.052;2023-06-22T09:36:02;13.65;;;7.60;;
23115;SDS011;11727;52.134;5.052;2023-06-22T09:38:37;15.93;;;8.48;;
23115;SDS011;11727;52.134;5.052;2023-06-22T09:41:03;16.42;;;7.78;;
23115;SDS011;11727;52.134;5.052;2023-06-22T09:43:31;11.43;;;7.07;;
23115;SDS011;11727;52.134;5.052;2023-06-22T09:46:00;12.45;;;7.03;;
23115;SDS011;11727;52.134;5.052;2023-06-22T09:48:27;10.02;;;6.25;;
23115;SDS011;11727;52.134;5.052;2023-06-22T09:50:53;11.00;;;6.40;;
23115;SDS011;11727;52.134;5.052;2023-06-22T09:53:19;10.45;;;5.55;;
23115;SDS011;11727;52.134;5.052;2023-06-22T09:55:44;9.82;;;6.07;;
23115;SDS011;11727;52.134;5.052;2023-06-22T09:58:10;9.25;;;5.10;;
23115;SDS011;11727;52.134;5.052;2023-06-22T10:00:35;8.63;;;4.68;;
23115;SDS011;11727;52.134;5.052;2023-06-22T10:03:01;12.05;;;6.13;;
23115;SDS011;11727;52.134;5.052;2023-06-22T10:05:27;8.93;;;5.15;;
23115;SDS011;11727;52.134;5.052;2023-06-22T10:07:52;9.77;;;5.20;;
23115;SDS011;11727;52.134;5.052;2023-06-22T10:10:18;7.68;;;3.88;;
23115;SDS011;11727;52.134;5.052;2023-06-22T10:12:45;5.68;;;3.88;;
23115;SDS011;11727;52.134;5.052;2023-06-22T10:15:12;4.88;;;2.60;;
23115;SDS011;11727;52.134;5.052;2023-06-22T10:17:37;6.57;;;3.10;;
23115;SDS011;11727;52.134;5.052;2023-06-22T10:20:04;4.75;;;2.60;;
23115;SDS011;11727;52.134;5.052;2023-06-22T10:22:40;6.85;;;3.30;;
23115;SDS011;11727;52.134;5.052;2023-06-22T10:25:08;8.00;;;3.00;;
23115;SDS011;11727;52.134;5.052;2023-06-22T10:27:34;7.70;;;3.55;;
23115;SDS011;11727;52.134;5.052;2023-06-22T10:30:00;4.25;;;2.75;;
23115;SDS011;11727;52.134;5.052;2023-06-22T10:32:26;9.00;;;3.60;;
23115;SDS011;11727;52.134;5.052;2023-06-22T10:34:53;4.38;;;2.95;;
23115;SDS011;11727;52.134;5.052;2023-06-22T10:37:19;4.93;;;2.88;;
23115;SDS011;11727;52.134;5.052;2023-06-22T10:39:44;5.25;;;3.08;;
23115;SDS011;11727;52.134;5.052;2023-06-22T10:42:10;8.90;;;3.88;;
23115;SDS011;11727;52.134;5.052;2023-06-22T10:44:36;6.55;;;3.20;;
23115;SDS011;11727;52.134;5.052;2023-06-22T10:47:03;7.65;;;3.47;;
23115;SDS011;11727;52.134;5.052;2023-06-22T10:49:29;4.28;;;2.83;;
23115;SDS011;11727;52.134;5.052;2023-06-22T10:51:55;8.45;;;3.67;;
23115;SDS011;11727;52.134;5.052;2023-06-22T10:54:20;7.45;;;3.20;;
23115;SDS011;11727;52.134;5.052;2023-06-22T10:56:46;6.18;;;3.15;;
23115;SDS011;11727;52.134;5.052;2023-06-22T10:59:11;8.40;;;3.30;;
23115;SDS011;11727;52.134;5.052;2023-06-22T11:01:37;9.23;;;3.47;;
23115;SDS011;11727;52.134;5.052;2023-06-22T11:04:03;5.22;;;3.35;;
23115;SDS011;11727;52.134;5.052;2023-06-22T11:06:29;7.30;;;4.20;;
23115;SDS011;11727;52.134;5.052;2023-06-22T11:08:54;9.65;;;3.80;;
23115;SDS011;11727;52.134;5.052;2023-06-22T11:11:20;6.45;;;3.67;;
23115;SDS011;11727;52.134;5.052;2023-06-22T11:13:46;6.28;;;3.58;;
23115;SDS011;11727;52.134;5.052;2023-06-22T11:16:11;9.02;;;4.00;;
23115;SDS011;11727;52.134;5.052;2023-06-22T11:18:37;7.57;;;4.22;;
23115;SDS011;11727;52.134;5.052;2023-06-22T11:21:03;8.85;;;4.05;;
23115;SDS011;11727;52.134;5.052;2023-06-22T11:23:28;7.07;;;4.65;;
23115;SDS011;11727;52.134;5.052;2023-06-22T11:25:54;10.60;;;4.15;;
23115;SDS011;11727;52.134;5.052;2023-06-22T11:28:21;7.47;;;4.22;;
23115;SDS011;11727;52.134;5.052;2023-06-22T11:30:47;8.25;;;4.78;;
23115;SDS011;11727;52.134;5.052;2023-06-22T11:33:12;9.45;;;5.05;;
23115;SDS011;11727;52.134;5.052;2023-06-22T11:35:38;8.38;;;4.95;;
23115;SDS011;11727;52.134;5.052;2023-06-22T11:38:03;8.35;;;4.60;;
23115;SDS011;11727;52.134;5.052;2023-06-22T11:40:30;12.98;;;5.00;;
23115;SDS011;11727;52.134;5.052;2023-06-22T11:42:55;9.35;;;5.00;;
23115;SDS011;11727;52.134;5.052;2023-06-22T11:45:21;12.30;;;4.60;;
23115;SDS011;11727;52.134;5.052;2023-06-22T11:47:47;10.25;;;4.97;;
23115;SDS011;11727;52.134;5.052;2023-06-22T11:50:12;8.32;;;4.30;;
23115;SDS011;11727;52.134;5.052;2023-06-22T11:52:38;9.95;;;4.13;;
23115;SDS011;11727;52.134;5.052;2023-06-22T11:55:04;8.73;;;4.20;;
23115;SDS011;11727;52.134;5.052;2023-06-22T11:57:35;11.55;;;4.35;;
23115;SDS011;11727;52.134;5.052;2023-06-22T12:00:02;7.10;;;4.38;;
23115;SDS011;11727;52.134;5.052;2023-06-22T12:02:49;7.03;;;4.22;;
23115;SDS011;11727;52.134;5.052;2023-06-22T12:05:16;7.93;;;4.13;;
23115;SDS011;11727;52.134;5.052;2023-06-22T12:07:42;7.03;;;3.78;;
23115;SDS011;11727;52.134;5.052;2023-06-22T12:10:08;7.50;;;3.97;;
23115;SDS011;11727;52.134;5.052;2023-06-22T12:12:34;8.02;;;4.22;;
23115;SDS011;11727;52.134;5.052;2023-06-22T12:15:00;5.65;;;3.88;;
23115;SDS011;11727;52.134;5.052;2023-06-22T12:17:28;6.07;;;3.72;;
23115;SDS011;11727;52.134;5.052;2023-06-22T12:19:56;4.93;;;3.35;;
23115;SDS011;11727;52.134;5.052;2023-06-22T12:22:22;6.55;;;3.53;;
23115;SDS011;11727;52.134;5.052;2023-06-22T12:24:47;7.78;;;3.92;;
23115;SDS011;11727;52.134;5.052;2023-06-22T12:27:13;5.03;;;3.20;;
23115;SDS011;11727;52.134;5.052;2023-06-22T12:29:41;6.25;;;3.28;;
23115;SDS011;11727;52.134;5.052;2023-06-22T12:32:07;6.40;;;3.65;;
23115;SDS011;11727;52.134;5.052;2023-06-22T12:34:32;6.07;;;3.58;;
23115;SDS011;11727;52.134;5.052;2023-06-22T12:36:58;8.32;;;3.78;;
23115;SDS011;11727;52.134;5.052;2023-06-22T12:39:24;7.03;;;4.35;;
23115;SDS011;11727;52.134;5.052;2023-06-22T12:41:49;8.30;;;4.45;;
23115;SDS011;11727;52.134;5.052;2023-06-22T12:44:15;8.60;;;5.18;;
23115;SDS011;11727;52.134;5.052;2023-06-22T12:46:40;8.60;;;4.72;;
23115;SDS011;11727;52.134;5.052;2023-06-22T12:49:06;11.95;;;5.18;;
23115;SDS011;11727;52.134;5.052;2023-06-22T12:51:31;7.57;;;5.00;;
23115;SDS011;11727;52.134;5.052;2023-06-22T12:53:57;11.30;;;5.78;;
23115;SDS011;11727;52.134;5.052;2023-06-22T12:56:23;9.50;;;5.03;;
23115;SDS011;11727;52.134;5.052;2023-06-22T12:58:48;9.35;;;5.78;;
23115;SDS011;11727;52.134;5.052;2023-06-22T13:01:14;10.30;;;6.00;;
23115;SDS011;11727;52.134;5.052;2023-06-22T13:03:41;10.32;;;5.90;;
23115;SDS011;11727;52.134;5.052;2023-06-22T13:06:07;11.35;;;7.10;;
23115;SDS011;11727;52.134;5.052;2023-06-22T13:08:32;15.60;;;5.78;;
23115;SDS011;11727;52.134;5.052;2023-06-22T13:10:58;10.25;;;5.75;;
23115;SDS011;11727;52.134;5.052;2023-06-22T13:13:24;8.93;;;5.65;;
23115;SDS011;11727;52.134;5.052;2023-06-22T13:15:52;9.80;;;6.05;;
23115;SDS011;11727;52.134;5.052;2023-06-22T13:18:18;9.47;;;5.87;;
23115;SDS011;11727;52.134;5.052;2023-06-22T13:20:44;15.27;;;6.78;;
23115;SDS011;11727;52.134;5.052;2023-06-22T13:23:10;8.88;;;5.43;;
23115;SDS011;11727;52.134;5.052;2023-06-22T13:25:36;11.85;;;5.93;;
23115;SDS011;11727;52.134;5.052;2023-06-22T13:28:05;8.73;;;6.13;;
23115;SDS011;11727;52.134;5.052;2023-06-22T13:30:30;8.75;;;5.65;;
23115;SDS011;11727;52.134;5.052;2023-06-22T13:32:57;8.93;;;4.78;;
23115;SDS011;11727;52.134;5.052;2023-06-22T13:35:22;9.10;;;5.15;;
23115;SDS011;11727;52.134;5.052;2023-06-22T13:37:48;13.98;;;6.10;;
23115;SDS011;11727;52.134;5.052;2023-06-22T13:40:14;8.93;;;4.80;;
23115;SDS011;11727;52.134;5.052;2023-06-22T13:42:39;7.50;;;4.53;;
23115;SDS011;11727;52.134;5.052;2023-06-22T13:45:05;7.75;;;4.50;;
23115;SDS011;11727;52.134;5.052;2023-06-22T13:47:32;7.50;;;4.97;;
23115;SDS011;11727;52.134;5.052;2023-06-22T13:49:57;7.93;;;4.57;;
23115;SDS011;11727;52.134;5.052;2023-06-22T13:52:23;8.80;;;5.05;;
23115;SDS011;11727;52.134;5.052;2023-06-22T13:54:49;6.60;;;4.50;;
23115;SDS011;11727;52.134;5.052;2023-06-22T13:57:15;10.45;;;4.47;;
23115;SDS011;11727;52.134;5.052;2023-06-22T13:59:40;8.45;;;4.10;;
23115;SDS011;11727;52.134;5.052;2023-06-22T14:02:06;8.02;;;4.68;;
23115;SDS011;11727;52.134;5.052;2023-06-22T14:04:31;7.25;;;4.75;;
23115;SDS011;11727;52.134;5.052;2023-06-22T14:06:57;7.95;;;4.13;;
23115;SDS011;11727;52.134;5.052;2023-06-22T14:09:23;8.63;;;4.72;;
23115;SDS011;11727;52.134;5.052;2023-06-22T14:11:49;7.47;;;4.50;;
23115;SDS011;11727;52.134;5.052;2023-06-22T14:14:15;9.55;;;4.85;;
23115;SDS011;11727;52.134;5.052;2023-06-22T14:16:40;8.45;;;4.30;;
23115;SDS011;11727;52.134;5.052;2023-06-22T14:19:06;13.15;;;5.05;;
23115;SDS011;11727;52.134;5.052;2023-06-22T14:21:31;7.90;;;4.63;;
23115;SDS011;11727;52.134;5.052;2023-06-22T14:23:57;9.98;;;4.90;;
23115;SDS011;11727;52.134;5.052;2023-06-22T14:26:22;8.88;;;4.85;;
23115;SDS011;11727;52.134;5.052;2023-06-22T14:28:48;7.78;;;4.90;;
23115;SDS011;11727;52.134;5.052;2023-06-22T14:31:18;8.27;;;4.75;;
23115;SDS011;11727;52.134;5.052;2023-06-22T14:33:48;12.93;;;5.15;;
23115;SDS011;11727;52.134;5.052;2023-06-22T14:36:15;12.57;;;5.80;;
23115;SDS011;11727;52.134;5.052;2023-06-22T14:38:41;10.93;;;5.38;;
23115;SDS011;11727;52.134;5.052;2023-06-22T14:41:06;12.43;;;5.57;;
23115;SDS011;11727;52.134;5.052;2023-06-22T14:43:32;11.95;;;6.75;;